Time;durP1;ratioP1;P1;durP2;ratioP2;P2;SDS_P1;SDS_P2;PMS_P1;PMS_P2;Temp;Humidity;BMP_temperature;BMP_pressure;BME280_temperature;BME280_humidity;BME280_pressure;Samples;Min_cycle;Max_cycle;Signal;HPM_P1;HPM_P2
2022/04/08 00:01:41;;;;;;;8.55;5.22;;;;;;;14.38;67.45;99083.59;1652318;84;21024;-57
2022/04/08 00:04:07;;;;;;;9.03;4.65;;;;;;;14.44;67.49;99086.06;1635481;86;21030;-62
2022/04/08 00:06:35;;;;;;;7.25;4.78;;;;;;;14.52;66.87;99088.84;1631471;87;21160;-59
2022/04/08 00:09:02;;;;;;;6.65;4.85;;;;;;;14.53;66.69;99076.80;1642712;87;21147;-58
2022/04/08 00:11:30;;;;;;;6.87;4.70;;;;;;;14.55;66.49;99077.38;1642264;87;22299;-58
2022/04/08 00:13:56;;;;;;;7.55;4.87;;;;;;;14.60;65.95;99067.47;1634646;86;21063;-57
2022/04/08 00:16:24;;;;;;;10.40;5.17;;;;;;;14.58;65.24;99070.84;1642174;86;21012;-56
2022/04/08 00:18:51;;;;;;;8.20;5.22;;;;;;;14.58;65.93;99070.84;1631830;87;21316;-55
2022/04/08 00:21:18;;;;;;;9.15;5.62;;;;;;;14.54;65.37;99073.66;1642648;87;21565;-56
2022/04/08 00:23:45;;;;;;;8.98;4.90;;;;;;;14.53;65.00;99068.14;1634551;86;21263;-55
2022/04/08 00:26:12;;;;;;;6.53;4.00;;;;;;;14.50;65.57;99068.61;1631673;87;21015;-55
2022/04/08 00:28:39;;;;;;;9.58;4.35;;;;;;;14.41;66.26;99063.45;1631091;87;21566;-54
2022/04/08 00:31:06;;;;;;;7.97;4.87;;;;;;;14.39;66.91;99061.58;1642605;87;21571;-57
2022/04/08 00:33:34;;;;;;;8.00;5.05;;;;;;;14.33;68.41;99065.95;1633062;86;20948;-55
2022/04/08 00:36:04;;;;;;;8.65;4.85;;;;;;;14.43;66.50;99071.87;1642422;87;21432;-55
2022/04/08 00:38:30;;;;;;;7.60;4.05;;;;;;;14.32;67.43;99062.54;1632489;86;21037;-56
2022/04/08 00:40:57;;;;;;;7.62;4.00;;;;;;;14.22;68.05;99065.50;1642719;87;21110;-55
2022/04/08 00:43:36;;;;;;;6.75;4.03;;;;;;;14.13;69.00;99069.02;1633319;86;21034;-55
2022/04/08 00:46:03;;;;;;;8.55;4.17;;;;;;;14.21;68.61;99069.95;1623520;87;20963;-54
2022/04/08 00:48:31;;;;;;;6.35;4.17;;;;;;;14.04;70.38;99071.20;1641707;87;21160;-55
2022/04/08 00:50:59;;;;;;;8.78;4.40;;;;;;;14.15;69.06;99063.53;1633378;86;21035;-55
2022/04/08 00:53:26;;;;;;;6.60;4.55;;;;;;;14.03;70.07;99060.97;1642221;87;21109;-56
2022/04/08 00:55:54;;;;;;;7.92;4.25;;;;;;;14.01;71.03;99060.39;1604291;87;21089;-56
2022/04/08 00:58:21;;;;;;;6.53;4.17;;;;;;;14.03;70.04;99055.21;1642195;87;21478;-60
2022/04/08 01:00:48;;;;;;;7.17;4.58;;;;;;;14.05;70.21;99057.58;1641512;87;21172;-57
2022/04/08 01:03:16;;;;;;;8.68;4.75;;;;;;;14.06;69.31;99052.12;1642621;87;21090;-58
2022/04/08 01:05:43;;;;;;;7.42;4.15;;;;;;;13.86;72.06;99051.73;1632999;86;21151;-57
2022/04/08 01:08:11;;;;;;;7.85;3.98;;;;;;;14.00;72.58;99047.02;1642271;87;21075;-65
2022/04/08 01:10:40;;;;;;;7.78;4.28;;;;;;;13.94;71.77;99044.84;1641950;87;21121;-58
2022/04/08 01:13:07;;;;;;;7.22;4.10;;;;;;;14.03;70.85;99036.08;1631726;87;21190;-57
2022/04/08 01:15:36;;;;;;;8.28;4.75;;;;;;;13.94;71.21;99041.40;1634463;86;21022;-58
2022/04/08 01:18:05;;;;;;;8.13;4.83;;;;;;;13.73;73.03;99037.62;1642640;87;21091;-57
2022/04/08 01:20:34;;;;;;;6.30;4.20;;;;;;;13.80;73.48;99031.73;1641606;87;21027;-57
2022/04/08 01:23:02;;;;;;;6.83;4.37;;;;;;;13.76;72.99;99027.48;1631981;87;21059;-57
2022/04/08 01:25:29;;;;;;;7.50;4.62;;;;;;;13.66;75.65;99027.27;1634532;86;21317;-58
2022/04/08 01:27:56;;;;;;;7.25;4.83;;;;;;;13.76;75.22;99035.85;1613407;87;21541;-57
2022/04/08 01:30:23;;;;;;;9.65;5.35;;;;;;;13.78;75.22;99028.54;1631326;87;21007;-58
2022/04/08 01:32:51;;;;;;;6.50;4.47;;;;;;;13.72;75.68;99025.56;1631610;87;21085;-59
2022/04/08 01:35:18;;;;;;;8.35;5.15;;;;;;;13.69;76.12;99019.48;1642557;87;21032;-57
2022/04/08 01:37:45;;;;;;;7.58;5.05;;;;;;;13.75;75.52;99020.66;1631365;87;21176;-59
2022/04/08 01:40:12;;;;;;;8.58;5.28;;;;;;;13.76;74.99;99022.23;1642296;87;21031;-54
2022/04/08 01:42:40;;;;;;;6.78;5.15;;;;;;;13.70;75.84;99029.70;1641705;87;21105;-57
2022/04/08 01:45:09;;;;;;;11.12;5.15;;;;;;;13.76;75.06;99022.23;1631902;87;21087;-57
2022/04/08 01:47:37;;;;;;;8.43;5.00;;;;;;;13.66;75.52;99020.73;1640187;87;21485;-57
2022/04/08 01:50:04;;;;;;;8.23;4.90;;;;;;;13.65;76.04;99016.53;1633405;86;21159;-56
2022/04/08 01:52:31;;;;;;;9.50;5.60;;;;;;;13.66;75.37;99023.34;1631005;87;20948;-60
2022/04/08 01:54:58;;;;;;;9.63;5.78;;;;;;;13.56;76.11;99022.66;1638608;86;22395;-58
2022/04/08 01:57:24;;;;;;;7.92;5.65;;;;;;;13.49;76.37;99018.06;1642598;86;21031;-58
2022/04/08 01:59:52;;;;;;;8.00;4.90;;;;;;;13.39;78.23;99016.55;1633334;86;21051;-57
2022/04/08 02:02:19;;;;;;;9.13;5.25;;;;;;;13.41;78.00;99011.06;1642540;87;21130;-57
2022/04/08 02:04:46;;;;;;;10.60;5.95;;;;;;;13.28;79.39;99003.76;1647047;85;21022;-57
2022/04/08 02:07:13;;;;;;;8.08;5.22;;;;;;;13.20;79.83;99003.30;1640916;86;21164;-56
2022/04/08 02:09:40;;;;;;;9.43;5.60;;;;;;;13.03;81.58;99004.50;1640497;86;21028;-56
2022/04/08 02:12:09;;;;;;;10.28;5.33;;;;;;;14.01;73.92;99005.38;1650471;86;21022;-57
2022/04/08 02:14:36;;;;;;;8.63;5.78;;;;;;;13.27;76.69;99003.48;1639209;87;21290;-59
2022/04/08 02:17:04;;;;;;;8.05;5.35;;;;;;;12.74;82.23;99000.50;1650184;86;21050;-57
2022/04/08 02:19:32;;;;;;;11.48;6.00;;;;;;;12.66;86.88;98996.92;1654260;84;20996;-56
2022/04/08 02:21:59;;;;;;;10.03;5.60;;;;;;;12.69;87.58;98996.47;1642276;86;21097;-56
2022/04/08 02:24:27;;;;;;;7.95;5.30;;;;;;;13.11;77.67;98989.79;1642425;86;21163;-58
2022/04/08 02:26:54;;;;;;;10.53;5.50;;;;;;;14.01;72.92;98994.37;1665185;85;21165;-63
2022/04/08 02:29:20;;;;;;;8.95;6.00;;;;;;;14.16;69.28;98993.84;1639497;87;21622;-56
2022/04/08 02:31:48;;;;;;;9.40;5.62;;;;;;;12.84;82.37;98990.76;1649691;86;21006;-57
2022/04/08 02:34:15;;;;;;;7.75;5.12;;;;;;;12.61;87.25;98992.38;1652709;84;20920;-58
2022/04/08 02:36:41;;;;;;;10.05;5.58;;;;;;;12.51;90.57;98986.91;1652264;84;21584;-60
2022/04/08 02:39:10;;;;;;;8.35;5.87;;;;;;;12.48;91.24;98988.66;1639229;87;21137;-56
2022/04/08 02:41:37;;;;;;;10.65;5.28;;;;;;;12.61;90.54;98981.92;1650312;86;21098;-56
2022/04/08 02:44:04;;;;;;;13.18;5.17;;;;;;;12.76;89.29;98980.13;1639759;87;21532;-56
2022/04/08 02:46:31;;;;;;;9.35;5.20;;;;;;;12.66;88.58;98975.49;1652468;84;21018;-56
2022/04/08 02:48:58;;;;;;;8.68;5.58;;;;;;;12.61;88.46;98975.39;1638972;87;21083;-58
2022/04/08 02:51:28;;;;;;;11.12;6.12;;;;;;;12.64;88.55;98964.97;1640639;86;21263;-57
2022/04/08 02:53:56;;;;;;;9.75;6.45;;;;;;;12.58;88.08;98958.05;1656182;85;21097;-58
2022/04/08 02:56:23;;;;;;;10.58;5.87;;;;;;;12.57;88.82;98956.44;1641271;86;20919;-57
2022/04/08 02:58:51;;;;;;;7.80;5.17;;;;;;;12.55;88.46;98950.14;1665159;86;21513;-58
2022/04/08 03:01:17;;;;;;;8.40;5.37;;;;;;;12.46;89.74;98950.19;1710015;78;20986;-57
2022/04/08 03:03:44;;;;;;;9.58;5.72;;;;;;;12.61;88.54;98949.25;1767923;81;21315;-57
2022/04/08 03:06:10;;;;;;;8.28;5.22;;;;;;;12.56;89.25;98947.81;1767966;81;20924;-56
2022/04/08 03:08:37;;;;;;;8.83;5.33;;;;;;;12.56;90.31;98950.94;1767520;81;21099;-57
2022/04/08 03:11:03;;;;;;;10.35;6.35;;;;;;;12.54;91.37;98952.97;1767597;81;21111;-59
2022/04/08 03:13:31;;;;;;;8.28;6.08;;;;;;;12.66;91.11;98959.02;1767832;81;21624;-57
2022/04/08 03:16:00;;;;;;;8.13;5.25;;;;;;;13.01;87.11;98955.56;1768515;81;21542;-56
2022/04/08 03:18:26;;;;;;;8.85;4.97;;;;;;;13.13;85.28;98948.47;1768104;81;20981;-57
2022/04/08 03:20:54;;;;;;;9.70;5.65;;;;;;;13.22;84.39;98945.80;1768343;80;20992;-58
2022/04/08 03:23:21;;;;;;;9.13;5.75;;;;;;;13.69;80.71;98940.40;1819278;78;20990;-57
2022/04/08 03:25:47;;;;;;;7.70;4.92;;;;;;;14.09;75.11;98936.86;1819539;78;21044;-56
2022/04/08 03:28:14;;;;;;;10.50;5.53;;;;;;;14.41;71.22;98937.62;1820313;78;21139;-56
2022/04/08 03:30:40;;;;;;;9.25;5.08;;;;;;;14.71;67.71;98937.28;1821743;78;20988;-57
2022/04/08 03:33:08;;;;;;;8.58;5.00;;;;;;;15.01;64.33;98936.88;1821310;78;20883;-56
2022/04/08 03:35:35;;;;;;;7.90;5.45;;;;;;;15.30;61.28;98931.72;1820837;78;21575;-57
2022/04/08 03:38:01;;;;;;;9.98;5.83;;;;;;;15.36;59.66;98923.88;1820616;78;21721;-57
2022/04/08 03:40:31;;;;;;;13.97;6.97;;;;;;;15.03;60.48;98929.55;1821448;78;20904;-56
2022/04/08 03:42:57;;;;;;;11.15;6.42;;;;;;;15.16;60.08;98923.94;1820807;78;21218;-57
2022/04/08 03:45:25;;;;;;;8.07;5.23;;;;;;;15.37;57.85;98921.00;1820538;78;21342;-58
2022/04/08 03:47:52;;;;;;;8.63;5.50;;;;;;;15.99;54.92;98923.20;1821464;78;21329;-56
2022/04/08 03:50:19;;;;;;;9.53;5.93;;;;;;;16.14;53.46;98924.34;1821376;78;21728;-56
2022/04/08 03:52:46;;;;;;;9.87;5.40;;;;;;;15.76;54.35;98916.44;1821378;78;21265;-56
2022/04/08 03:55:13;;;;;;;7.30;5.17;;;;;;;16.02;54.05;98919.26;1821074;78;21320;-56
2022/04/08 03:57:40;;;;;;;8.33;5.17;;;;;;;16.35;52.69;98920.03;1821004;78;21058;-55
2022/04/08 04:00:08;;;;;;;7.20;5.23;;;;;;;16.54;51.63;98919.88;1821314;78;21213;-55
2022/04/08 04:02:35;;;;;;;9.60;4.70;;;;;;;17.03;50.52;98915.67;1781609;80;21316;-55
2022/04/08 04:05:03;;;;;;;9.77;4.33;;;;;;;17.46;48.97;98913.17;1765021;81;21356;-57
2022/04/08 04:07:32;;;;;;;11.50;4.90;;;;;;;17.86;47.77;98918.77;1822221;78;21477;-57
2022/04/08 04:09:59;;;;;;;7.90;4.67;;;;;;;18.16;46.94;98914.02;1796374;78;21676;-53
2022/04/08 04:12:27;;;;;;;8.00;4.67;;;;;;;18.61;45.04;98918.42;1822757;78;22174;-54
2022/04/08 04:14:55;;;;;;;10.93;5.03;;;;;;;18.74;44.32;98918.41;1811489;78;21564;-55
2022/04/08 04:17:23;;;;;;;7.73;5.00;;;;;;;19.93;42.12;98913.02;1822141;78;21190;-55
2022/04/08 04:19:51;;;;;;;11.07;5.53;;;;;;;20.37;40.97;98912.07;1822019;78;20990;-55
2022/04/08 04:22:17;;;;;;;8.70;5.17;;;;;;;20.70;39.41;98915.48;1822859;78;21472;-55
2022/04/08 04:24:45;;;;;;;7.13;4.77;;;;;;;20.42;39.49;98911.25;1822448;78;21049;-56
2022/04/08 04:27:12;;;;;;;9.10;4.83;;;;;;;20.13;39.55;98914.69;1822537;78;20966;-56
2022/04/08 04:29:39;;;;;;;7.33;4.37;;;;;;;20.20;39.09;98911.73;1822228;77;21250;-55
2022/04/08 04:32:09;;;;;;;6.90;4.53;;;;;;;20.07;39.24;98915.00;1818534;77;21037;-55
2022/04/08 04:34:36;;;;;;;7.80;4.60;;;;;;;20.16;38.99;98910.17;1781026;80;21055;-55
2022/04/08 04:37:05;;;;;;;6.70;4.20;;;;;;;19.95;39.10;98911.41;1762284;79;21078;-62
2022/04/08 04:39:32;;;;;;;9.07;4.60;;;;;;;20.04;39.58;98911.59;1761025;80;21122;-56
2022/04/08 04:41:59;;;;;;;9.87;5.07;;;;;;;20.23;39.34;98894.48;1737108;81;21258;-55
2022/04/08 04:44:27;;;;;;;8.23;4.57;;;;;;;20.56;38.76;98894.96;1737323;79;21490;-56
2022/04/08 04:46:55;;;;;;;11.63;5.77;;;;;;;20.56;38.44;98889.67;1765897;79;20960;-57
2022/04/08 04:49:22;;;;;;;8.43;5.10;;;;;;;20.70;38.33;98883.70;1815160;77;21567;-61
2022/04/08 04:51:51;;;;;;;7.10;4.90;;;;;;;20.90;38.12;98880.26;1821540;78;21524;-55
2022/04/08 04:54:17;;;;;;;8.30;4.67;;;;;;;21.03;37.59;98873.48;1822098;77;21150;-56
2022/04/08 04:56:44;;;;;;;7.70;4.67;;;;;;;21.10;37.43;98880.55;1822117;77;21100;-54
2022/04/08 04:59:11;;;;;;;6.80;4.47;;;;;;;21.09;37.09;98881.61;1820196;77;21002;-54
2022/04/08 05:01:37;;;;;;;7.13;4.10;;;;;;;21.09;36.99;98877.62;1821243;77;20990;-61
2022/04/08 05:04:05;;;;;;;8.30;4.50;;;;;;;21.13;36.49;98885.26;1815027;77;21410;-56
2022/04/08 05:06:34;;;;;;;6.77;4.23;;;;;;;21.18;36.27;98884.97;1817375;77;21065;-56
2022/04/08 05:09:04;;;;;;;7.93;3.90;;;;;;;21.35;35.71;98882.61;1815372;77;21567;-56
2022/04/08 05:11:32;;;;;;;9.33;4.00;;;;;;;21.08;35.83;98873.41;1816930;77;20927;-61
2022/04/08 05:14:01;;;;;;;6.90;4.13;;;;;;;21.27;35.35;98881.91;1819838;78;21477;-55
2022/04/08 05:16:29;;;;;;;6.03;3.70;;;;;;;21.44;35.00;98880.09;1819606;78;21547;-56
2022/04/08 05:18:56;;;;;;;6.57;3.47;;;;;;;21.48;35.01;98879.77;1808663;78;21250;-56
2022/04/08 05:21:24;;;;;;;7.87;3.90;;;;;;;21.65;34.91;98872.09;1819895;78;21030;-57
2022/04/08 05:23:52;;;;;;;6.27;3.40;;;;;;;21.77;34.27;98870.30;1819472;78;20966;-57
2022/04/08 05:26:18;;;;;;;9.23;4.13;;;;;;;21.85;34.35;98873.07;1820008;78;21791;-55
2022/04/08 05:28:46;;;;;;;5.43;3.77;;;;;;;21.87;34.03;98871.47;1819855;78;21555;-56
2022/04/08 05:31:12;;;;;;;8.43;3.63;;;;;;;21.52;34.09;98868.31;1819956;78;21141;-58
2022/04/08 05:33:40;;;;;;;8.90;3.90;;;;;;;21.14;34.57;98861.68;1819664;78;21529;-61
2022/04/08 05:36:09;;;;;;;6.30;4.10;;;;;;;20.64;35.35;98855.95;1819208;78;20962;-55
2022/04/08 05:38:36;;;;;;;6.73;3.50;;;;;;;20.24;35.98;98860.36;1820055;78;20994;-56
2022/04/08 05:41:03;;;;;;;8.13;4.20;;;;;;;19.90;36.54;98853.27;1820029;78;20968;-55
2022/04/08 05:43:30;;;;;;;9.93;4.23;;;;;;;19.57;37.16;98860.91;1820038;78;21525;-56
2022/04/08 05:45:57;;;;;;;7.10;3.53;;;;;;;19.66;37.32;98859.80;1819365;78;20956;-60
2022/04/08 05:48:23;;;;;;;8.17;3.40;;;;;;;19.53;37.35;98858.55;1819738;78;20984;-56
2022/04/08 05:50:49;;;;;;;8.30;2.77;;;;;;;19.54;37.73;98858.80;1820507;78;21078;-56
2022/04/08 05:53:16;;;;;;;6.73;3.77;;;;;;;19.62;37.43;98860.10;1820189;78;20975;-55
2022/04/08 05:55:43;;;;;;;7.10;3.47;;;;;;;19.46;37.64;98856.75;1820458;78;21250;-56
2022/04/08 05:58:10;;;;;;;8.33;2.77;;;;;;;19.61;38.02;98855.32;1818930;78;21611;-56
2022/04/08 06:00:38;;;;;;;8.63;3.33;;;;;;;20.16;37.29;98854.61;1820227;78;21128;-56
2022/04/08 06:03:05;;;;;;;6.17;2.97;;;;;;;20.47;36.85;98842.37;1822228;78;20883;-57
2022/04/08 06:05:31;;;;;;;5.97;3.10;;;;;;;20.68;36.55;98842.15;1822993;78;21018;-55
2022/04/08 06:07:58;;;;;;;6.40;2.73;;;;;;;20.75;36.22;98839.94;1822193;78;21129;-60
2022/04/08 06:10:26;;;;;;;3.80;2.37;;;;;;;20.97;35.78;98828.26;1822687;78;21378;-56
2022/04/08 06:12:54;;;;;;;6.77;3.40;;;;;;;21.19;35.44;98817.09;1822772;78;20995;-56
2022/04/08 06:15:22;;;;;;;6.13;3.30;;;;;;;21.36;34.79;98799.36;1823153;78;20982;-56
2022/04/08 06:17:50;;;;;;;5.97;3.20;;;;;;;21.45;34.81;98800.29;1822570;78;21480;-62
2022/04/08 06:20:18;;;;;;;5.23;2.90;;;;;;;21.43;34.67;98807.73;1822753;78;21145;-56
2022/04/08 06:22:47;;;;;;;6.73;2.93;;;;;;;21.21;34.74;98806.98;1823005;78;20938;-57
2022/04/08 06:25:21;;;;;;;5.13;2.63;;;;;;;21.54;34.67;98811.02;1823010;78;20994;-55
2022/04/08 06:28:04;;;;;;;4.43;2.90;;;;;;;21.76;34.22;98801.88;1822300;78;21112;-57
2022/04/08 06:30:33;;;;;;;6.27;2.67;;;;;;;22.10;33.79;98816.12;1823066;78;21053;-56
2022/04/08 06:33:00;;;;;;;8.40;2.30;;;;;;;22.63;33.27;98799.47;1822893;78;21236;-57
2022/04/08 06:35:26;;;;;;;6.47;2.60;;;;;;;23.30;32.46;98791.63;1822914;78;21630;-56
2022/04/08 06:38:05;;;;;;;8.10;2.23;;;;;;;23.57;31.85;98787.25;1810389;78;20995;-57
2022/04/08 06:40:40;;;;;;;5.60;2.13;;;;;;;23.80;30.87;98772.84;1822748;78;20974;-55
2022/04/08 06:43:08;;;;;;;8.40;2.13;;;;;;;24.00;31.10;98791.47;1823045;78;20943;-56
2022/04/08 06:45:35;;;;;;;4.67;2.07;;;;;;;24.53;30.12;98797.21;1822293;78;22449;-56
2022/04/08 06:48:04;;;;;;;4.27;1.97;;;;;;;24.83;29.08;98784.87;1823110;78;20963;-56
2022/04/08 06:50:31;;;;;;;5.03;2.50;;;;;;;24.93;28.74;98795.78;1822812;78;21113;-57
2022/04/08 06:53:00;;;;;;;6.00;2.20;;;;;;;25.20;28.50;98792.81;1822765;78;20919;-56
2022/04/08 06:55:27;;;;;;;5.90;2.37;;;;;;;25.28;27.89;98799.79;1822095;78;21382;-57
2022/04/08 06:57:57;;;;;;;7.63;2.27;;;;;;;25.10;28.22;98800.34;1811596;78;21165;-57
2022/04/08 07:00:24;;;;;;;6.83;2.30;;;;;;;24.90;28.48;98797.18;1822973;78;20883;-57
2022/04/08 07:02:51;;;;;;;5.93;2.50;;;;;;;24.84;28.44;98797.09;1821885;78;21441;-54
2022/04/08 07:05:17;;;;;;;7.33;2.20;;;;;;;24.84;28.41;98790.98;1819319;78;20927;-54
2022/04/08 07:07:47;;;;;;;6.17;2.17;;;;;;;24.75;28.43;98788.31;1820374;78;21389;-55
2022/04/08 07:10:13;;;;;;;6.30;3.00;;;;;;;24.89;28.51;98792.95;1819592;78;22471;-55
2022/04/08 07:12:40;;;;;;;4.77;2.70;;;;;;;24.65;28.44;98788.61;1820489;78;20994;-55
2022/04/08 07:15:09;;;;;;;6.63;2.30;;;;;;;24.91;28.06;98797.41;1819895;78;20880;-60
2022/04/08 07:17:37;;;;;;;7.73;4.13;;;;;;;24.97;27.93;98780.72;1819921;78;21154;-55
2022/04/08 07:20:06;;;;;;;14.13;10.50;;;;;;;24.93;28.06;98771.23;1819377;78;20982;-55
2022/04/08 07:22:34;;;;;;;6.90;2.87;;;;;;;25.08;27.72;98776.64;1776315;80;21197;-55
2022/04/08 07:25:00;;;;;;;5.93;2.30;;;;;;;25.16;27.57;98769.77;1764922;81;21046;-60
2022/04/08 07:27:27;;;;;;;4.53;1.70;;;;;;;25.35;27.45;98774.20;1820013;78;20884;-55
2022/04/08 07:29:55;;;;;;;5.43;2.17;;;;;;;25.33;27.15;98757.72;1808195;78;21236;-55
2022/04/08 07:32:23;;;;;;;6.23;1.93;;;;;;;25.40;27.07;98766.02;1819897;78;21539;-57
2022/04/08 07:34:51;;;;;;;7.80;2.07;;;;;;;25.51;27.00;98774.48;1820087;78;21018;-55
2022/04/08 07:37:31;;;;;;;7.87;3.00;;;;;;;25.66;27.11;98759.84;1818586;77;21034;-61
2022/04/08 07:39:57;;;;;;;25.17;16.07;;;;;;;26.07;26.39;98767.80;1817564;78;20935;-57
2022/04/08 07:42:25;;;;;;;8.27;3.37;;;;;;;26.43;25.82;98770.71;1820122;78;21430;-56
2022/04/08 07:44:53;;;;;;;8.10;3.13;;;;;;;26.53;25.35;98770.15;1820206;78;21003;-56
2022/04/08 07:47:20;;;;;;;4.93;2.03;;;;;;;26.41;25.42;98767.59;1819413;78;22390;-61
2022/04/08 07:49:48;;;;;;;7.30;3.87;;;;;;;26.26;25.22;98750.80;1818181;78;21567;-55
2022/04/08 07:52:15;;;;;;;3.77;1.57;;;;;;;26.25;25.56;98746.54;1820039;78;21532;-54
2022/04/08 07:54:43;;;;;;;6.83;2.73;;;;;;;26.28;25.58;98755.25;1819998;78;21580;-58
2022/04/08 07:57:14;;;;;;;4.97;1.80;;;;;;;26.13;25.35;98759.81;1820123;78;20963;-54
2022/04/08 07:59:41;;;;;;;5.70;2.03;;;;;;;26.06;25.25;98726.16;1818498;78;21185;-55
2022/04/08 08:02:08;;;;;;;6.87;1.30;;;;;;;26.11;25.54;98723.31;1789933;78;21410;-54
2022/04/08 08:04:53;;;;;;;6.30;2.30;;;;;;;26.18;25.36;98723.59;1822800;78;20962;-54
2022/04/08 08:08:01;;;;;;;4.67;1.80;;;;;;;26.19;24.95;98714.47;1822293;78;20932;-56
2022/04/08 08:11:00;;;;;;;6.23;1.90;;;;;;;26.13;25.06;98708.52;1795730;78;20966;-54
2022/04/08 08:13:59;;;;;;;9.73;2.53;;;;;;;26.48;24.62;98708.86;1812221;78;20969;-54
2022/04/08 08:17:01;;;;;;;4.03;1.60;;;;;;;26.71;24.46;98702.63;1822522;78;20942;-57
2022/04/08 08:19:42;;;;;;;4.57;1.80;;;;;;;26.72;24.28;98706.88;1821884;78;20999;-55
2022/04/08 08:22:28;;;;;;;4.47;1.67;;;;;;;26.76;24.14;98692.53;1798173;78;20947;-57
2022/04/08 08:29:02;;;;;;;7.50;1.90;;;;;;;27.67;23.77;98695.20;1823057;78;21508;-57
2022/04/08 08:31:29;;;;;;;4.07;1.73;;;;;;;28.12;22.57;98697.77;1822875;78;20927;-56
2022/04/08 08:33:57;;;;;;;3.83;2.13;;;;;;;27.83;22.66;98689.41;1809804;77;20927;-58
2022/04/08 08:36:26;;;;;;;4.10;1.40;;;;;;;27.39;22.81;98721.28;1822203;78;21582;-54
2022/04/08 08:38:55;;;;;;;4.80;2.37;;;;;;;27.10;23.21;98682.61;1811056;78;20955;-55
2022/04/08 08:41:22;;;;;;;5.53;1.67;;;;;;;27.21;23.12;98674.42;1822891;78;21138;-55
2022/04/08 08:43:54;;;;;;;5.40;2.00;;;;;;;27.30;23.01;98680.44;1821815;78;20878;-55
2022/04/08 08:46:20;;;;;;;5.70;1.57;;;;;;;27.67;22.82;98667.66;1822859;78;21405;-56
2022/04/08 08:48:48;;;;;;;8.10;2.23;;;;;;;27.61;22.76;98665.18;1822943;78;20942;-55
2022/04/08 08:51:15;;;;;;;4.20;1.70;;;;;;;27.65;22.71;98661.28;1823273;77;20995;-56
2022/04/08 08:53:42;;;;;;;6.80;2.03;;;;;;;27.73;22.37;98662.28;1749495;79;21126;-58
2022/04/08 08:56:10;;;;;;;5.67;1.60;;;;;;;27.63;22.39;98656.27;1763620;79;20905;-56
2022/04/08 08:58:38;;;;;;;3.60;1.60;;;;;;;27.67;22.18;98645.67;1765064;81;21016;-55
2022/04/08 09:01:09;;;;;;;3.23;1.27;;;;;;;27.85;21.84;98644.91;1822427;77;21115;-57
2022/04/08 09:03:37;;;;;;;4.13;1.47;;;;;;;27.65;21.85;98631.83;1753316;80;21133;-56
2022/04/08 09:06:08;;;;;;;5.57;1.93;;;;;;;27.70;22.05;98625.49;1763870;80;21099;-56
2022/04/08 09:08:35;;;;;;;6.67;1.83;;;;;;;27.75;22.00;98624.72;1820948;77;21057;-57
2022/04/08 09:11:04;;;;;;;4.13;1.53;;;;;;;27.69;22.12;98626.03;1822007;77;21025;-56
2022/04/08 09:13:46;;;;;;;4.90;1.03;;;;;;;27.88;21.71;98624.94;1819415;77;20970;-55
2022/04/08 09:16:18;;;;;;;4.27;1.27;;;;;;;27.93;21.81;98621.80;1808855;77;20947;-56
2022/04/08 09:18:48;;;;;;;5.57;1.30;;;;;;;28.10;21.74;98606.80;1789194;78;21424;-55
2022/04/08 09:21:25;;;;;;;6.20;1.47;;;;;;;28.38;21.50;98614.12;1806859;77;21056;-55
2022/04/08 09:23:54;;;;;;;5.50;1.53;;;;;;;28.27;21.49;98606.53;1821165;77;20997;-55
2022/04/08 09:26:22;;;;;;;4.60;1.50;;;;;;;28.31;21.13;98604.72;1794641;78;21018;-56
2022/04/08 09:28:52;;;;;;;5.70;1.43;;;;;;;28.33;21.15;98602.46;1821896;78;21042;-56
2022/04/08 09:31:22;;;;;;;4.60;1.20;;;;;;;28.25;21.17;98593.23;1790137;78;21242;-61
2022/04/08 09:33:54;;;;;;;3.17;1.53;;;;;;;28.31;20.88;98605.28;1819872;77;21058;-58
2022/04/08 09:36:31;;;;;;;8.10;2.15;;;;;;;28.28;21.20;98594.67;1823052;78;21026;-55
2022/04/08 09:38:59;;;;;;;8.27;1.53;;;;;;;28.33;21.04;98590.41;1823328;78;21023;-55
2022/04/08 09:41:44;;;;;;;6.23;1.57;;;;;;;28.50;20.98;98588.03;1821856;77;21092;-62
2022/04/08 09:44:13;;;;;;;3.60;1.20;;;;;;;28.65;20.82;98590.53;1821905;77;21325;-55
2022/04/08 09:46:41;;;;;;;3.57;1.20;;;;;;;28.50;20.79;98584.58;1822249;78;20923;-57
2022/04/08 09:49:10;;;;;;;5.53;1.60;;;;;;;28.42;20.80;98590.87;1822694;78;20852;-60
2022/04/08 09:51:40;;;;;;;6.67;1.40;;;;;;;28.25;20.67;98579.84;1818782;77;20950;-56
2022/04/08 09:54:10;;;;;;;7.13;1.33;;;;;;;27.96;20.96;98599.15;1822109;77;20939;-55
2022/04/08 09:56:38;;;;;;;6.27;2.77;;;;;;;27.81;21.27;98572.52;1817163;77;21111;-56
2022/04/08 09:59:14;;;;;;;5.83;1.73;;;;;;;27.94;21.16;98571.14;1813507;77;20995;-58
2022/04/08 10:01:43;;;;;;;4.67;1.20;;;;;;;27.82;21.39;98594.14;1822788;78;21623;-56
2022/04/08 10:04:11;;;;;;;5.53;1.43;;;;;;;27.94;21.46;98569.80;1793231;78;21628;-55
2022/04/08 10:06:42;;;;;;;6.83;1.30;;;;;;;28.19;21.11;98577.98;1822400;78;21540;-61
2022/04/08 10:09:14;;;;;;;6.43;1.40;;;;;;;28.24;21.04;98576.95;1822760;77;21650;-56
2022/04/08 10:12:05;;;;;;;6.73;1.90;;;;;;;28.40;21.05;98576.45;1797136;77;21013;-55
2022/04/08 10:15:05;;;;;;;5.23;1.73;;;;;;;28.53;20.79;98571.27;1795432;77;20951;-55
2022/04/08 10:17:34;;;;;;;6.20;2.03;;;;;;;28.53;21.04;98575.85;1817819;78;21453;-57
2022/04/08 10:20:21;;;;;;;4.50;1.40;;;;;;;28.74;20.60;98580.97;1821528;77;21532;-58
2022/04/08 10:22:49;;;;;;;6.60;1.30;;;;;;;28.88;20.59;98565.81;1814710;77;21567;-55
2022/04/08 10:25:18;;;;;;;4.33;1.63;;;;;;;29.02;20.54;98572.33;1815607;77;20963;-56
2022/04/08 10:27:47;;;;;;;7.03;1.50;;;;;;;29.11;20.38;98575.40;1821538;77;20871;-61
2022/04/08 10:30:21;;;;;;;6.27;1.90;;;;;;;29.02;20.57;98589.00;1823051;78;21056;-56
2022/04/08 10:33:12;;;;;;;9.30;1.67;;;;;;;28.99;20.71;98561.52;1821044;77;21017;-56
2022/04/08 10:35:38;;;;;;;6.00;2.03;;;;;;;29.21;20.47;98578.34;1754705;80;21235;-56
2022/04/08 10:38:07;;;;;;;7.53;1.90;;;;;;;28.23;21.20;98568.14;1763036;79;20941;-56
2022/04/08 10:40:37;;;;;;;8.40;1.80;;;;;;;28.80;20.75;98569.66;1760029;81;21522;-57
2022/04/08 10:43:07;;;;;;;6.17;1.97;;;;;;;27.99;21.47;98565.53;1811048;77;21585;-58
2022/04/08 10:45:37;;;;;;;4.95;2.00;;;;;;;28.09;21.61;98561.81;1800191;77;21368;-55
2022/04/08 10:48:18;;;;;;;6.77;1.67;;;;;;;28.27;21.03;98571.69;1814327;77;21815;-56
2022/04/08 10:50:44;;;;;;;8.77;2.03;;;;;;;28.16;21.22;98571.95;1816167;78;21005;-55
2022/04/08 10:53:16;;;;;;;8.03;2.80;;;;;;;28.17;20.95;98574.84;1813806;77;21029;-57
2022/04/08 10:55:53;;;;;;;9.83;1.87;;;;;;;27.99;21.12;98574.91;1819816;77;20930;-56
2022/04/08 10:58:34;;;;;;;5.43;1.80;;;;;;;27.81;21.25;98560.47;1822576;78;21054;-56
2022/04/08 11:01:22;;;;;;;5.60;1.80;;;;;;;27.70;21.30;98570.61;1818073;77;21560;-58
2022/04/08 11:04:00;;;;;;;8.90;1.83;;;;;;;28.52;20.68;98565.66;1817481;77;20899;-57
2022/04/08 11:06:28;;;;;;;12.20;2.30;;;;;;;28.63;20.60;98576.67;1820999;78;20939;-57
2022/04/08 11:08:57;;;;;;;5.63;1.70;;;;;;;28.69;20.42;98582.58;1807476;78;21285;-57
2022/04/08 11:11:30;;;;;;;10.67;2.10;;;;;;;28.55;20.61;98573.03;1790597;78;20999;-58
2022/04/08 11:13:59;;;;;;;6.87;1.67;;;;;;;28.55;20.63;98587.00;1808764;78;21050;-60
2022/04/08 11:16:29;;;;;;;5.07;2.00;;;;;;;28.46;20.61;98577.00;1819258;78;20982;-57
2022/04/08 11:18:58;;;;;;;9.80;2.57;;;;;;;28.34;20.76;98568.43;1808727;78;20888;-56
2022/04/08 11:21:26;;;;;;;12.47;2.67;;;;;;;28.34;21.00;98571.11;1820230;78;20990;-56
2022/04/08 11:24:01;;;;;;;9.50;2.97;;;;;;;28.28;20.89;98571.13;1790899;78;20943;-56
2022/04/08 11:26:31;;;;;;;8.97;2.90;;;;;;;28.12;20.95;98575.09;1820043;78;21149;-57
2022/04/08 11:29:16;;;;;;;5.83;2.43;;;;;;;27.76;21.33;98579.42;1790234;78;21370;-57
2022/04/08 11:31:46;;;;;;;6.53;3.43;;;;;;;27.74;21.49;98572.30;1819513;78;20965;-60
2022/04/08 11:34:15;;;;;;;10.03;4.00;;;;;;;27.71;21.50;98555.54;1819713;78;21050;-56
2022/04/08 11:36:44;;;;;;;12.83;4.13;;;;;;;27.62;21.80;98570.95;1820192;78;21098;-55
2022/04/08 11:39:21;;;;;;;10.30;4.50;;;;;;;27.61;21.85;98570.16;1820013;78;21093;-56
2022/04/08 11:41:56;;;;;;;8.50;4.00;;;;;;;27.57;21.78;98555.89;1818208;78;21815;-57
2022/04/08 11:44:24;;;;;;;8.63;4.07;;;;;;;27.30;22.06;98572.64;1820291;78;20927;-56
2022/04/08 11:46:53;;;;;;;7.07;3.30;;;;;;;27.28;22.31;98558.27;1819176;77;20990;-54